map of KOS home
KOS - Airport
Location
City:  Sihanoukville, Sihanoukville, Cambodia
Near (Alt.):Kompong Som
Name:Sihanoukville International Airport
ICAO:VDSV
IATA:KOS

Details
Type:Airport (Aerodrome, Airfield)
Use:International (customs port of entry)
Latitude:1034'47"N (10.579686)
Longitude:10338'13"E (103.636828)
Datum:WGS 1984
Elevation:33 ft (10 m)
Variation:0.40W (WMM2015 magnetic declination)
-0.01 annual change
Runways:1
Longest:4251 × 112 ft (1296 × 34 m), paved

Time
Time Zone:UTC+7
Local Time:

Weather
METAR:VDSV 180530Z 13004KT 9999 SCT015 32/23 Q1011
TAF:VDSV 180500Z 1806/1824 05009KT 9999 FEW017

Related Locations
Nearby:
Farthest:SPVI: 12442 mi / 20024 km
Vicco [Vicco Airport], PAS, PE

Find:

   beyond  
but within

Other Information
Maps:
NOTAMs:
Links:
Sources:

  
  • flag of Cambodia
  

Sectional Chart

Flight Planning
at skyvector.com

Satellite Image

Google Maps Satellite view

 

Copyright © 2004-2019 Karl L. Swartz. All rights reserved.
The Great Circle Mapper name and logo are trademarks of the Great Circle Mapper.
All other trademarks mentioned herein belong to their respective owners.
Please see credits for attibutions and further copyright information.

  Follow gcmap on Facebook Follow gcmap on Twitter Follow gcmap on Google+ GCmap on LinkedIn

hCard Microformat

Geo Microformat